Time;durP1;ratioP1;P1;durP2;ratioP2;P2;SDS_P1;SDS_P2;PMS_P1;PMS_P2;Temp;Humidity;BMP_temperature;BMP_pressure;BME280_temperature;BME280_humidity;BME280_pressure;Samples;Min_cycle;Max_cycle;Signal;HPM_P1;HPM_P2
2023/04/01 00:00:06;;;;;;;5.03;1.90;;;10.20;99.90;;;;;;2094539;28;20624;-70
2023/04/01 00:01:13;;;;;;;4.20;1.60;;;10.20;99.90;;;;;;2099464;28;20061;-70
2023/04/01 00:02:14;;;;;;;4.53;1.85;;;10.10;99.90;;;;;;2099438;28;20026;-71
2023/04/01 00:03:15;;;;;;;3.90;1.52;;;10.10;99.90;;;;;;2092138;28;20035;-71
2023/04/01 00:04:15;;;;;;;4.15;1.60;;;10.10;99.90;;;;;;2090295;28;20453;-71
2023/04/01 00:05:16;;;;;;;2.60;1.50;;;10.10;99.90;;;;;;2090214;28;20186;-71
2023/04/01 00:06:18;;;;;;;2.35;1.50;;;10.10;99.90;;;;;;2099471;28;20057;-71
2023/04/01 00:07:18;;;;;;;4.93;1.77;;;10.10;99.90;;;;;;2099229;28;20039;-72
2023/04/01 00:08:19;;;;;;;3.50;1.60;;;10.10;99.90;;;;;;2101152;28;20044;-72
2023/04/01 00:09:20;;;;;;;4.20;1.80;;;10.10;99.90;;;;;;2096951;28;20012;-71
2023/04/01 00:10:20;;;;;;;5.25;1.95;;;10.10;99.90;;;;;;2091283;28;20457;-71
2023/04/01 00:11:21;;;;;;;3.65;1.50;;;10.10;99.90;;;;;;2099266;28;20119;-71
2023/04/01 00:12:22;;;;;;;5.03;1.70;;;10.20;99.90;;;;;;2101267;28;20035;-72
2023/04/01 00:13:25;;;;;;;2.65;1.60;;;10.20;99.90;;;;;;2099346;28;20051;-71
2023/04/01 00:14:25;;;;;;;2.95;1.50;;;10.20;99.90;;;;;;2090042;28;20082;-71
2023/04/01 00:15:26;;;;;;;2.85;1.50;;;10.20;99.90;;;;;;2097969;28;20028;-71
2023/04/01 00:16:27;;;;;;;3.63;1.70;;;10.20;99.90;;;;;;2085220;28;20499;-72
2023/04/01 00:17:27;;;;;;;4.68;1.50;;;10.20;99.90;;;;;;2092400;28;20690;-71
2023/04/01 00:18:28;;;;;;;3.25;1.60;;;10.20;99.90;;;;;;2090310;28;20040;-72
2023/04/01 00:19:29;;;;;;;2.83;1.52;;;10.20;99.90;;;;;;2085435;28;20307;-71
2023/04/01 00:20:30;;;;;;;3.95;1.50;;;10.20;99.90;;;;;;2090262;28;20024;-72
2023/04/01 00:21:30;;;;;;;2.83;1.65;;;10.20;99.90;;;;;;2100866;28;20042;-72
2023/04/01 00:22:31;;;;;;;3.25;1.60;;;10.20;99.90;;;;;;2087957;28;20107;-72
2023/04/01 00:23:32;;;;;;;3.40;1.40;;;10.20;99.90;;;;;;2090087;28;20504;-72
2023/04/01 00:24:32;;;;;;;4.53;1.50;;;10.20;99.90;;;;;;2090317;28;20040;-73
2023/04/01 00:25:33;;;;;;;3.97;1.40;;;10.20;99.90;;;;;;2083960;28;20038;-71
2023/04/01 00:26:33;;;;;;;3.47;1.40;;;10.20;99.90;;;;;;2090162;28;20327;-70
2023/04/01 00:27:34;;;;;;;4.68;1.92;;;10.20;99.90;;;;;;2082069;28;20064;-71
2023/04/01 00:28:35;;;;;;;4.00;1.60;;;10.30;99.90;;;;;;2075391;28;20044;-71
2023/04/01 00:29:36;;;;;;;3.22;1.50;;;10.30;99.90;;;;;;2092340;28;20027;-71
2023/04/01 00:30:37;;;;;;;4.25;1.58;;;10.30;99.90;;;;;;2094371;28;20555;-71
2023/04/01 00:31:38;;;;;;;2.88;1.45;;;10.30;99.90;;;;;;2094117;28;20360;-71
2023/04/01 00:32:38;;;;;;;2.70;1.50;;;10.30;99.90;;;;;;2085149;28;20448;-71
2023/04/01 00:33:40;;;;;;;4.00;1.38;;;10.30;99.90;;;;;;2085436;28;20072;-71
2023/04/01 00:34:41;;;;;;;4.00;1.60;;;10.30;99.90;;;;;;2088049;28;20035;-70
2023/04/01 00:35:41;;;;;;;5.22;1.65;;;10.30;99.90;;;;;;2081474;28;20439;-70
2023/04/01 00:36:42;;;;;;;3.15;1.30;;;10.30;99.90;;;;;;2093356;28;20032;-71
2023/04/01 00:37:43;;;;;;;3.42;1.38;;;10.30;99.90;;;;;;2097327;28;20027;-70
2023/04/01 00:38:44;;;;;;;4.07;1.50;;;10.30;99.90;;;;;;2082905;28;20028;-70
2023/04/01 00:39:45;;;;;;;3.90;1.58;;;10.30;99.90;;;;;;2077278;28;20021;-71
2023/04/01 00:40:46;;;;;;;3.58;1.63;;;10.30;99.90;;;;;;2077507;28;20033;-70
2023/04/01 00:41:47;;;;;;;3.92;1.70;;;10.30;99.90;;;;;;2086023;28;20055;-71
2023/04/01 00:42:48;;;;;;;4.38;1.35;;;10.30;99.90;;;;;;2085305;28;20411;-71
2023/04/01 00:43:50;;;;;;;3.75;1.83;;;10.20;99.90;;;;;;2077315;28;20029;-71
2023/04/01 00:44:52;;;;;;;3.85;1.30;;;10.20;99.90;;;;;;2076074;28;20546;-71
2023/04/01 00:45:53;;;;;;;3.47;1.50;;;10.20;99.90;;;;;;2086595;28;21137;-71
2023/04/01 00:46:54;;;;;;;4.63;1.48;;;10.20;99.90;;;;;;2073714;28;20022;-71
2023/04/01 00:47:57;;;;;;;2.92;1.40;;;10.20;99.90;;;;;;2086558;28;20395;-71
2023/04/01 00:48:57;;;;;;;4.72;1.60;;;10.20;99.90;;;;;;2079632;28;20061;-71
2023/04/01 00:49:59;;;;;;;4.13;1.60;;;10.20;99.90;;;;;;2077132;28;20590;-71
2023/04/01 00:51:15;;;;;;;3.35;1.50;;;10.20;99.90;;;;;;2076747;28;20044;-72
2023/04/01 00:52:20;;;;;;;3.60;1.60;;;10.20;99.90;;;;;;2086331;28;20039;-71
2023/04/01 00:53:22;;;;;;;3.08;1.40;;;10.10;99.90;;;;;;2082794;28;20139;-71
2023/04/01 00:54:25;;;;;;;4.68;1.67;;;10.10;99.90;;;;;;2085407;28;20021;-71
2023/04/01 00:55:30;;;;;;;5.15;1.70;;;10.10;99.90;;;;;;2093990;28;20066;-71
2023/04/01 00:56:49;;;;;;;3.92;1.60;;;10.10;99.90;;;;;;2085040;28;20075;-71
2023/04/01 00:57:52;;;;;;;4.07;1.50;;;10.10;99.90;;;;;;2079372;28;20531;-70
2023/04/01 00:59:08;;;;;;;4.05;1.70;;;10.10;99.90;;;;;;2077477;28;20022;-71
2023/04/01 01:00:12;;;;;;;4.97;1.50;;;10.10;99.90;;;;;;2071135;28;20025;-70
2023/04/01 01:01:13;;;;;;;3.58;1.50;;;10.10;99.90;;;;;;2070528;28;20013;-70
2023/04/01 01:02:15;;;;;;;4.15;1.63;;;10.10;99.90;;;;;;2077366;28;20080;-70
2023/04/01 01:03:16;;;;;;;6.65;1.63;;;10.10;99.90;;;;;;2085684;28;20047;-70
2023/04/01 01:04:27;;;;;;;3.92;1.60;;;10.10;99.90;;;;;;2081537;28;20143;-71
2023/04/01 01:05:49;;;;;;;4.82;1.67;;;10.10;99.90;;;;;;2084836;28;20563;-71
2023/04/01 01:07:14;;;;;;;3.38;1.50;;;10.10;99.90;;;;;;2082048;28;20055;-70
2023/04/01 01:08:31;;;;;;;4.20;1.50;;;10.10;99.90;;;;;;2089634;28;20032;-70
2023/04/01 01:09:50;;;;;;;4.05;1.70;;;10.10;99.90;;;;;;2092329;28;20115;-72
2023/04/01 01:10:51;;;;;;;3.70;1.63;;;10.10;99.90;;;;;;2081031;28;20034;-72
2023/04/01 01:12:06;;;;;;;5.15;1.77;;;10.10;99.90;;;;;;2078655;28;20045;-72
2023/04/01 01:13:14;;;;;;;4.32;1.67;;;10.10;99.90;;;;;;2088275;28;20252;-72
2023/04/01 01:14:49;;;;;;;3.55;1.50;;;10.10;99.90;;;;;;2086459;28;20516;-72
2023/04/01 01:16:03;;;;;;;2.63;1.40;;;10.10;99.90;;;;;;2071107;28;20037;-70
2023/04/01 01:17:13;;;;;;;3.13;1.45;;;10.20;99.90;;;;;;2087194;28;20054;-71
2023/04/01 01:18:36;;;;;;;3.35;1.45;;;10.20;99.90;;;;;;2085049;28;20033;-71
2023/04/01 01:20:15;;;;;;;3.67;1.33;;;10.20;99.90;;;;;;2078447;28;20498;-71
2023/04/01 01:21:57;;;;;;;4.10;1.50;;;10.20;99.90;;;;;;2076647;28;20403;-72
2023/04/01 01:23:32;;;;;;;3.00;1.42;;;10.20;99.90;;;;;;2051133;28;20661;-71
2023/04/01 01:25:18;;;;;;;3.83;1.60;;;10.20;99.90;;;;;;2058299;28;20082;-71
2023/04/01 01:26:30;;;;;;;2.88;1.55;;;10.20;99.90;;;;;;2052637;28;20540;-71
2023/04/01 01:27:34;;;;;;;4.85;1.80;;;10.20;99.90;;;;;;2053269;28;20030;-71
2023/04/01 01:29:00;;;;;;;5.07;1.80;;;10.20;99.90;;;;;;2057088;28;20067;-72
2023/04/01 01:30:06;;;;;;;6.63;2.28;;;10.20;99.90;;;;;;2086707;28;20501;-71
2023/04/01 01:31:33;;;;;;;4.32;1.60;;;10.20;99.90;;;;;;2086492;28;20189;-71
2023/04/01 01:32:55;;;;;;;3.53;1.20;;;10.20;99.90;;;;;;2090393;28;20044;-72
2023/04/01 01:34:28;;;;;;;4.55;1.40;;;10.20;99.90;;;;;;2081868;28;20182;-72
2023/04/01 01:35:29;;;;;;;4.55;1.58;;;10.20;99.90;;;;;;2051933;28;20050;-72
2023/04/01 01:36:36;;;;;;;4.05;1.50;;;10.20;99.90;;;;;;2075155;28;20032;-72
2023/04/01 01:37:41;;;;;;;3.90;1.50;;;10.20;99.90;;;;;;2076924;28;20500;-71
2023/04/01 01:38:43;;;;;;;3.20;1.42;;;10.20;99.90;;;;;;2077225;28;20033;-72
2023/04/01 01:39:48;;;;;;;4.10;1.58;;;10.20;99.90;;;;;;2076971;28;20240;-72
2023/04/01 01:40:53;;;;;;;4.80;1.70;;;10.20;99.90;;;;;;2077035;28;20588;-71
2023/04/01 01:41:59;;;;;;;4.90;1.40;;;10.20;99.90;;;;;;2077566;28;21064;-72
2023/04/01 01:43:04;;;;;;;3.42;1.33;;;10.20;99.90;;;;;;2075339;28;20579;-72
2023/04/01 01:44:11;;;;;;;3.30;1.50;;;10.20;99.90;;;;;;2064684;28;20505;-72
2023/04/01 01:45:17;;;;;;;3.60;1.50;;;10.20;99.90;;;;;;2079207;28;20033;-71
2023/04/01 01:46:22;;;;;;;6.95;1.60;;;10.20;99.90;;;;;;2084715;28;20029;-71
2023/04/01 01:47:24;;;;;;;2.30;1.40;;;10.10;99.90;;;;;;2070246;28;20368;-71
2023/04/01 01:48:27;;;;;;;2.28;1.20;;;10.10;99.90;;;;;;2066406;28;20583;-71
2023/04/01 01:49:30;;;;;;;3.72;1.55;;;10.10;99.90;;;;;;2077830;28;20037;-70
2023/04/01 01:50:31;;;;;;;3.30;1.30;;;10.10;99.90;;;;;;2083608;28;20507;-71
2023/04/01 01:51:32;;;;;;;3.63;1.50;;;10.10;99.90;;;;;;2087472;28;20114;-70
2023/04/01 01:52:35;;;;;;;3.22;1.40;;;10.10;99.90;;;;;;2084666;28;20156;-71
2023/04/01 01:53:36;;;;;;;4.65;1.40;;;10.10;99.90;;;;;;2085170;28;20371;-71
2023/04/01 01:54:50;;;;;;;4.95;1.55;;;10.10;99.90;;;;;;2084880;28;20095;-71
2023/04/01 01:55:51;;;;;;;4.85;1.42;;;10.10;99.90;;;;;;2085114;28;20482;-70
2023/04/01 01:57:05;;;;;;;4.82;1.50;;;10.10;99.90;;;;;;2076982;28;20037;-71
2023/04/01 01:58:31;;;;;;;4.03;1.48;;;10.10;99.90;;;;;;2074904;28;20040;-71
2023/04/01 01:59:34;;;;;;;4.28;1.40;;;10.20;99.90;;;;;;2078457;28;20083;-73
2023/04/01 02:00:36;;;;;;;3.15;1.35;;;10.10;99.90;;;;;;2077060;28;20096;-70
2023/04/01 02:01:42;;;;;;;5.28;1.65;;;10.10;99.90;;;;;;2076294;28;20025;-70
2023/04/01 02:02:48;;;;;;;3.80;1.30;;;10.10;99.90;;;;;;2073162;28;20338;-71
2023/04/01 02:03:50;;;;;;;4.78;1.65;;;10.10;99.90;;;;;;2085137;28;20508;-72
2023/04/01 02:04:54;;;;;;;4.78;1.40;;;10.20;99.90;;;;;;2085008;28;20028;-71
2023/04/01 02:05:59;;;;;;;4.05;1.48;;;10.10;99.90;;;;;;2076693;28;20326;-71
2023/04/01 02:07:04;;;;;;;4.97;1.58;;;10.10;99.90;;;;;;2085219;28;20025;-71
2023/04/01 02:08:13;;;;;;;4.18;1.40;;;10.10;99.90;;;;;;2078841;28;20098;-71
2023/04/01 02:09:14;;;;;;;2.85;1.42;;;10.10;99.90;;;;;;2081969;28;20025;-72
2023/04/01 02:10:14;;;;;;;4.07;1.35;;;10.10;99.90;;;;;;2085041;28;20494;-72
2023/04/01 02:11:19;;;;;;;5.78;1.70;;;10.10;99.90;;;;;;2087298;28;20573;-72
2023/04/01 02:12:24;;;;;;;3.55;1.50;;;10.10;99.90;;;;;;2078849;28;20427;-72
2023/04/01 02:13:33;;;;;;;3.88;1.40;;;10.10;99.90;;;;;;2086467;28;20246;-71
2023/04/01 02:14:54;;;;;;;3.00;1.50;;;10.10;99.90;;;;;;2079156;28;20025;-72
2023/04/01 02:15:59;;;;;;;5.70;1.90;;;10.10;99.90;;;;;;2089165;28;20332;-71
2023/04/01 02:17:14;;;;;;;5.70;1.55;;;10.10;99.90;;;;;;2078085;28;20044;-72
2023/04/01 02:18:15;;;;;;;2.38;1.30;;;10.10;99.90;;;;;;2079915;28;20025;-71
2023/04/01 02:19:22;;;;;;;5.03;1.50;;;10.10;99.90;;;;;;2078200;28;20036;-72
2023/04/01 02:20:24;;;;;;;4.20;1.60;;;10.10;99.90;;;;;;2085890;28;20030;-71
2023/04/01 02:21:29;;;;;;;3.15;1.58;;;10.10;99.90;;;;;;2078137;28;20025;-72
2023/04/01 02:22:36;;;;;;;5.05;1.73;;;10.10;99.90;;;;;;2086365;28;20047;-72
2023/04/01 02:23:38;;;;;;;4.15;1.50;;;10.10;99.90;;;;;;2085574;28;20036;-72
2023/04/01 02:24:41;;;;;;;5.43;1.80;;;10.10;99.90;;;;;;2085941;28;20032;-72
2023/04/01 02:25:44;;;;;;;4.78;1.70;;;10.10;99.90;;;;;;2075066;28;20043;-71
2023/04/01 02:26:46;;;;;;;4.90;1.60;;;10.10;99.90;;;;;;2076937;28;20361;-72
2023/04/01 02:27:47;;;;;;;4.20;1.50;;;10.10;99.90;;;;;;2084860;28;20083;-70
2023/04/01 02:28:49;;;;;;;5.38;1.50;;;10.10;99.90;;;;;;2084854;28;20102;-71
2023/04/01 02:29:50;;;;;;;3.25;1.48;;;10.10;99.90;;;;;;2079536;28;20132;-70
2023/04/01 02:30:52;;;;;;;3.25;1.52;;;10.10;99.90;;;;;;2086283;28;20063;-71
2023/04/01 02:31:54;;;;;;;5.75;1.50;;;10.20;99.90;;;;;;2077871;28;20036;-71
2023/04/01 02:32:57;;;;;;;5.05;1.60;;;10.20;99.90;;;;;;2077913;28;20033;-71
2023/04/01 02:33:58;;;;;;;5.65;1.75;;;10.10;99.90;;;;;;2079136;28;20052;-70
2023/04/01 02:34:59;;;;;;;3.80;1.50;;;10.10;99.90;;;;;;2080782;28;20044;-72
2023/04/01 02:36:00;;;;;;;4.82;1.60;;;10.20;99.90;;;;;;2086546;28;20052;-71
2023/04/01 02:37:01;;;;;;;4.43;1.67;;;10.20;99.90;;;;;;2095347;28;20039;-71
2023/04/01 02:38:02;;;;;;;3.63;1.58;;;10.20;99.90;;;;;;2086339;28;20036;-71
2023/04/01 02:39:04;;;;;;;4.63;1.60;;;10.10;99.90;;;;;;2081157;28;20033;-71
2023/04/01 02:40:07;;;;;;;4.00;1.42;;;10.20;99.90;;;;;;2087034;28;20024;-71
2023/04/01 02:41:08;;;;;;;5.40;1.77;;;10.20;99.90;;;;;;2087766;28;20146;-72
2023/04/01 02:42:10;;;;;;;3.75;1.60;;;10.20;99.90;;;;;;2079483;28;20077;-72
2023/04/01 02:43:11;;;;;;;2.83;1.40;;;10.20;99.90;;;;;;2077103;28;20033;-72
2023/04/01 02:44:13;;;;;;;4.93;1.40;;;10.20;99.90;;;;;;2089351;28;20032;-72
2023/04/01 02:45:14;;;;;;;5.65;1.70;;;10.20;99.90;;;;;;2087462;28;20070;-71
2023/04/01 02:46:16;;;;;;;4.50;1.30;;;10.10;99.90;;;;;;2088317;28;20017;-70
2023/04/01 02:47:17;;;;;;;3.83;1.50;;;10.10;99.90;;;;;;2086166;28;20075;-71
2023/04/01 02:48:17;;;;;;;5.30;1.75;;;10.10;99.90;;;;;;2078154;28;20101;-71
2023/04/01 02:49:18;;;;;;;3.92;1.70;;;10.10;99.90;;;;;;2080350;28;20025;-70
2023/04/01 02:50:19;;;;;;;3.42;1.58;;;10.10;99.90;;;;;;2081179;28;20574;-71
2023/04/01 02:51:20;;;;;;;4.43;1.70;;;10.10;99.90;;;;;;2079325;28;20057;-71
2023/04/01 02:52:20;;;;;;;3.78;1.70;;;10.10;99.90;;;;;;2079196;28;20482;-71
2023/04/01 02:53:21;;;;;;;4.65;1.73;;;10.10;99.90;;;;;;2070999;28;20048;-71
2023/04/01 02:54:22;;;;;;;3.90;1.50;;;10.10;99.90;;;;;;2079154;28;20087;-71
2023/04/01 02:55:23;;;;;;;5.05;1.70;;;10.10;99.90;;;;;;2085703;28;20066;-71
2023/04/01 02:56:23;;;;;;;5.65;1.65;;;10.10;99.90;;;;;;2086029;28;20509;-71
2023/04/01 02:57:25;;;;;;;4.90;1.80;;;10.00;99.90;;;;;;2086173;28;20032;-71
2023/04/01 02:58:26;;;;;;;4.90;1.65;;;10.00;99.90;;;;;;2078023;28;20493;-71
2023/04/01 02:59:26;;;;;;;4.50;1.60;;;10.00;99.90;;;;;;2072348;28;20038;-71
2023/04/01 03:00:27;;;;;;;4.80;1.70;;;10.00;99.90;;;;;;2082225;28;20112;-71
2023/04/01 03:01:28;;;;;;;7.28;1.77;;;10.00;99.90;;;;;;2078583;28;20120;-71
2023/04/01 03:02:28;;;;;;;2.97;1.60;;;10.00;99.90;;;;;;2073810;28;20127;-71
2023/04/01 03:03:29;;;;;;;4.65;1.70;;;10.00;99.90;;;;;;2081872;28;20064;-71
2023/04/01 03:04:30;;;;;;;4.28;1.70;;;10.00;99.90;;;;;;2083074;28;20514;-71
2023/04/01 03:05:31;;;;;;;3.47;1.63;;;10.00;99.90;;;;;;2086026;28;20467;-70
2023/04/01 03:06:31;;;;;;;6.32;1.70;;;10.10;99.90;;;;;;2095283;28;20032;-70
2023/04/01 03:07:32;;;;;;;5.10;1.75;;;10.00;99.90;;;;;;2097988;28;20032;-70
2023/04/01 03:08:32;;;;;;;4.28;1.63;;;10.00;99.90;;;;;;2087805;28;20527;-71
2023/04/01 03:09:33;;;;;;;6.13;2.00;;;10.00;99.90;;;;;;2075323;28;20235;-70
2023/04/01 03:10:34;;;;;;;5.45;2.83;;;10.10;99.90;;;;;;2083331;28;20021;-71
2023/04/01 03:11:35;;;;;;;6.72;1.95;;;10.00;99.90;;;;;;2087555;28;20170;-72
2023/04/01 03:12:36;;;;;;;5.32;1.80;;;10.10;99.90;;;;;;2079311;28;20052;-71
2023/04/01 03:13:37;;;;;;;3.55;1.60;;;10.10;99.90;;;;;;2080353;28;20149;-70
2023/04/01 03:14:38;;;;;;;6.55;1.60;;;10.10;99.90;;;;;;2086169;28;20044;-70
2023/04/01 03:15:38;;;;;;;4.30;1.73;;;10.10;99.90;;;;;;2077856;28;20021;-69
2023/04/01 03:16:39;;;;;;;4.07;1.85;;;10.10;99.90;;;;;;2080814;28;20026;-83
2023/04/01 03:17:41;;;;;;;5.07;1.55;;;10.10;99.90;;;;;;2083504;28;20116;-81
2023/04/01 03:18:43;;;;;;;4.93;1.75;;;10.10;99.90;;;;;;2090572;28;20104;-84
2023/04/01 03:19:44;;;;;;;5.13;1.83;;;10.10;99.90;;;;;;2079450;28;20029;-85
2023/04/01 03:20:45;;;;;;;3.15;1.52;;;10.10;99.90;;;;;;2073470;28;20544;-85
2023/04/01 03:21:45;;;;;;;4.13;1.80;;;10.10;99.90;;;;;;2081989;28;20403;-82
2023/04/01 03:22:46;;;;;;;4.80;1.65;;;10.10;99.90;;;;;;2089183;28;20084;-84
2023/04/01 03:23:47;;;;;;;7.18;2.10;;;10.10;99.90;;;;;;2088408;28;20495;-86
2023/04/01 03:24:48;;;;;;;5.28;1.90;;;10.10;99.90;;;;;;2088001;28;20528;-85
2023/04/01 03:25:49;;;;;;;6.18;1.70;;;10.10;99.90;;;;;;2083639;28;20033;-87
2023/04/01 03:26:50;;;;;;;4.28;1.70;;;10.10;99.90;;;;;;2089229;28;20029;-85
2023/04/01 03:27:50;;;;;;;3.83;1.73;;;10.10;99.90;;;;;;2068589;28;20850;-84
2023/04/01 03:28:51;;;;;;;5.68;1.63;;;10.10;99.90;;;;;;2082356;28;20555;-85
2023/04/01 03:29:52;;;;;;;4.63;1.70;;;10.10;99.90;;;;;;2088919;28;20025;-81
2023/04/01 03:30:53;;;;;;;6.20;1.90;;;10.10;99.90;;;;;;2081996;28;20112;-86
2023/04/01 03:31:54;;;;;;;3.72;1.85;;;10.00;99.90;;;;;;2073591;28;20365;-84
2023/04/01 03:32:54;;;;;;;4.15;1.90;;;10.10;99.90;;;;;;2060371;28;20081;-86
2023/04/01 03:33:55;;;;;;;5.65;1.92;;;10.00;99.90;;;;;;2081299;28;20052;-84
2023/04/01 03:34:56;;;;;;;6.13;1.60;;;10.00;99.90;;;;;;2073952;28;20028;-85
2023/04/01 03:35:57;;;;;;;4.32;1.80;;;10.00;99.90;;;;;;2069157;28;20032;-86
2023/04/01 03:36:58;;;;;;;4.10;1.67;;;10.00;99.90;;;;;;2075174;28;20046;-86
2023/04/01 03:37:59;;;;;;;3.58;1.60;;;10.00;99.90;;;;;;2066359;28;20459;-87
2023/04/01 03:39:00;;;;;;;6.13;1.90;;;10.00;99.90;;;;;;2075625;28;20037;-83
2023/04/01 03:40:09;;;;;;;6.95;2.00;;;10.00;99.90;;;;;;2079810;28;20469;-84
2023/04/01 03:41:17;;;;;;;3.72;1.42;;;10.00;99.90;;;;;;2082363;28;20017;-86
2023/04/01 03:42:18;;;;;;;3.08;1.50;;;10.00;99.90;;;;;;2079389;28;20029;-87
2023/04/01 03:43:18;;;;;;;4.78;1.60;;;10.00;99.90;;;;;;2086971;28;20028;-83
2023/04/01 03:44:19;;;;;;;4.13;1.75;;;10.00;99.90;;;;;;2084606;28;20028;-82
2023/04/01 03:45:23;;;;;;;4.40;1.40;;;10.00;99.90;;;;;;2084009;28;20029;-84
2023/04/01 03:46:24;;;;;;;5.97;1.60;;;10.00;99.90;;;;;;2088271;28;20064;-85
2023/04/01 03:47:25;;;;;;;7.78;1.80;;;10.00;99.90;;;;;;2092110;28;20067;-83
2023/04/01 03:48:26;;;;;;;6.68;1.90;;;10.00;99.90;;;;;;2090494;28;20036;-85
2023/04/01 03:49:26;;;;;;;5.22;1.90;;;10.00;99.90;;;;;;2080260;28;20617;-87
2023/04/01 03:50:27;;;;;;;4.80;1.90;;;10.00;99.90;;;;;;2080155;28;20094;-86
2023/04/01 03:51:28;;;;;;;3.78;1.80;;;10.00;99.90;;;;;;2080780;28;20039;-86
2023/04/01 03:52:29;;;;;;;3.55;1.88;;;10.00;99.90;;;;;;2086309;28;20424;-82
2023/04/01 03:53:30;;;;;;;4.30;1.83;;;10.00;99.90;;;;;;2075527;28;20103;-86
2023/04/01 03:54:33;;;;;;;4.90;1.83;;;10.00;99.90;;;;;;2080944;28;20037;-86
2023/04/01 03:55:36;;;;;;;4.85;1.60;;;10.10;99.90;;;;;;2082314;28;20104;-82
2023/04/01 03:56:37;;;;;;;5.95;1.75;;;10.00;99.90;;;;;;2072975;28;20038;-83
2023/04/01 03:57:38;;;;;;;3.50;1.70;;;10.00;99.90;;;;;;2079609;28;20124;-83
2023/04/01 03:58:48;;;;;;;;;;;10.00;99.90;;;;;;2074235;28;20064;-84
2023/04/01 03:59:49;;;;;;;4.50;1.70;;;10.00;99.90;;;;;;2072108;28;19910;-82
2023/04/01 04:00:50;;;;;;;4.82;1.67;;;10.00;99.90;;;;;;2073978;28;20417;-85
2023/04/01 04:01:50;;;;;;;2.80;1.50;;;10.00;99.90;;;;;;2075665;28;20033;-85
2023/04/01 04:02:51;;;;;;;4.53;1.52;;;10.00;99.90;;;;;;2081908;28;20033;-87
2023/04/01 04:03:56;;;;;;;5.03;1.77;;;10.00;99.90;;;;;;2082288;28;20017;-83
2023/04/01 04:04:57;;;;;;;4.38;1.60;;;10.00;99.90;;;;;;2074977;28;20029;-87
2023/04/01 04:05:58;;;;;;;4.18;1.73;;;10.00;99.90;;;;;;2075416;28;20123;-86
2023/04/01 04:06:59;;;;;;;3.80;1.63;;;10.00;99.90;;;;;;2071495;28;20037;-86
2023/04/01 04:08:01;;;;;;;3.05;1.42;;;10.00;99.90;;;;;;2084575;28;20031;-87
2023/04/01 04:09:01;;;;;;;4.35;1.70;;;10.00;99.90;;;;;;2072880;28;20037;-83
2023/04/01 04:10:05;;;;;;;3.88;1.60;;;10.00;99.90;;;;;;2084640;28;20063;-87
2023/04/01 04:11:06;;;;;;;3.33;1.50;;;10.00;99.90;;;;;;2084149;28;20459;-86
2023/04/01 04:12:07;;;;;;;4.18;1.50;;;10.00;99.90;;;;;;2075465;28;20251;-86
2023/04/01 04:13:08;;;;;;;5.47;1.50;;;10.10;99.90;;;;;;2074951;28;20026;-83
2023/04/01 04:14:14;;;;;;;5.00;1.80;;;10.00;99.90;;;;;;2075840;28;20033;-83
2023/04/01 04:15:14;;;;;;;4.25;1.80;;;10.00;99.90;;;;;;2069585;28;20022;-85
2023/04/01 04:16:16;;;;;;;5.85;1.95;;;10.00;99.90;;;;;;2073005;28;20025;-85
2023/04/01 04:17:20;;;;;;;5.03;1.70;;;10.00;99.90;;;;;;2075364;28;20032;-85
2023/04/01 04:18:21;;;;;;;4.55;1.60;;;10.00;99.90;;;;;;2073275;28;20033;-86
2023/04/01 04:19:22;;;;;;;3.55;1.50;;;10.10;99.90;;;;;;2082227;28;20021;-85
2023/04/01 04:20:23;;;;;;;3.70;1.70;;;10.00;99.90;;;;;;2086306;28;20052;-84
2023/04/01 04:21:23;;;;;;;4.60;2.00;;;10.00;99.90;;;;;;2093852;28;20024;-87
2023/04/01 04:22:24;;;;;;;4.82;1.60;;;10.00;99.90;;;;;;2087898;28;20052;-87
2023/04/01 04:23:25;;;;;;;6.25;2.08;;;10.00;99.90;;;;;;2077092;28;20195;-85
2023/04/01 04:24:25;;;;;;;6.00;1.80;;;10.00;99.90;;;;;;2072001;28;20029;-85
2023/04/01 04:25:34;;;;;;;4.30;1.70;;;10.00;99.90;;;;;;2080623;28;20059;-85
2023/04/01 04:26:36;;;;;;;3.72;1.75;;;10.00;99.90;;;;;;2073854;28;20037;-85
2023/04/01 04:27:36;;;;;;;5.28;1.73;;;10.00;99.90;;;;;;2070387;28;20025;-79
2023/04/01 04:28:42;;;;;;;4.97;1.77;;;10.00;99.90;;;;;;2085926;28;20496;-82
2023/04/01 04:29:42;;;;;;;4.75;1.73;;;10.00;99.90;;;;;;2075979;28;20039;-85
2023/04/01 04:30:43;;;;;;;5.50;1.67;;;10.00;99.90;;;;;;2072797;28;20488;-87
2023/04/01 04:31:44;;;;;;;6.03;1.83;;;10.00;99.90;;;;;;2086641;28;20056;-84
2023/04/01 04:32:44;;;;;;;3.60;1.60;;;10.00;99.90;;;;;;2089311;28;20092;-84
2023/04/01 04:33:46;;;;;;;3.17;1.55;;;10.00;99.90;;;;;;2081878;28;20195;-83
2023/04/01 04:34:47;;;;;;;4.85;1.58;;;10.00;99.90;;;;;;2085570;28;20056;-85
2023/04/01 04:35:48;;;;;;;5.38;1.90;;;10.00;99.90;;;;;;2088850;28;20050;-82
2023/04/01 04:36:49;;;;;;;3.45;1.55;;;10.00;99.90;;;;;;2087817;28;20040;-85
2023/04/01 04:37:50;;;;;;;5.63;1.77;;;10.10;99.90;;;;;;2084433;28;20048;-82
2023/04/01 04:38:51;;;;;;;5.63;1.70;;;10.00;99.90;;;;;;2095108;28;20096;-84
2023/04/01 04:39:52;;;;;;;5.03;1.70;;;10.00;99.90;;;;;;2095449;28;20206;-82
2023/04/01 04:40:54;;;;;;;5.85;1.73;;;10.00;99.90;;;;;;2083284;28;20388;-85
2023/04/01 04:41:55;;;;;;;5.45;1.65;;;10.00;99.90;;;;;;2074087;28;20030;-83
2023/04/01 04:42:56;;;;;;;5.65;1.80;;;10.10;99.90;;;;;;2082173;28;20029;-83
2023/04/01 04:43:58;;;;;;;4.30;1.95;;;10.10;99.90;;;;;;2087004;28;20156;-82
2023/04/01 04:44:59;;;;;;;3.83;1.80;;;10.10;99.90;;;;;;2088125;28;20027;-83
2023/04/01 04:46:05;;;;;;;4.78;1.80;;;10.00;99.90;;;;;;2089662;28;20021;-84
2023/04/01 04:47:06;;;;;;;4.32;1.60;;;10.10;99.90;;;;;;2086794;28;20103;-83
2023/04/01 04:48:08;;;;;;;4.90;1.88;;;10.10;99.90;;;;;;2094176;28;20514;-81
2023/04/01 04:49:09;;;;;;;5.60;1.60;;;10.10;99.90;;;;;;2078028;28;20029;-84
2023/04/01 04:50:11;;;;;;;4.00;1.70;;;10.10;99.90;;;;;;2084766;28;20235;-75
2023/04/01 04:51:16;;;;;;;5.80;1.67;;;10.10;99.90;;;;;;2087961;28;20055;-77
2023/04/01 04:52:16;;;;;;;5.85;1.70;;;10.10;99.90;;;;;;2090146;28;20031;-73
2023/04/01 04:53:18;;;;;;;4.85;1.50;;;10.10;99.90;;;;;;2089885;28;20457;-74
2023/04/01 04:54:19;;;;;;;5.63;1.63;;;10.10;99.90;;;;;;2081594;28;20021;-74
2023/04/01 04:55:29;;;;;;;3.88;1.77;;;10.10;99.90;;;;;;2088291;28;20031;-74
2023/04/01 04:56:52;;;;;;;3.63;1.40;;;10.10;99.90;;;;;;2086613;28;20522;-74
2023/04/01 04:57:52;;;;;;;4.00;1.73;;;10.10;99.90;;;;;;2092617;28;20037;-74
2023/04/01 04:58:53;;;;;;;3.80;1.70;;;10.10;99.90;;;;;;2081492;28;20113;-74
2023/04/01 04:59:58;;;;;;;6.40;1.90;;;10.20;99.90;;;;;;2090124;28;20079;-74
2023/04/01 05:01:15;;;;;;;5.90;1.70;;;10.20;99.90;;;;;;2090037;28;20391;-74
2023/04/01 05:02:16;;;;;;;3.92;1.35;;;10.20;99.90;;;;;;2081746;28;20428;-75
2023/04/01 05:03:17;;;;;;;6.03;1.63;;;10.10;99.90;;;;;;2089141;28;20097;-74
2023/04/01 05:04:17;;;;;;;4.70;1.65;;;10.20;99.90;;;;;;2086522;28;20115;-75
2023/04/01 05:05:19;;;;;;;3.63;1.50;;;10.10;99.90;;;;;;2083363;28;20486;-73
2023/04/01 05:06:20;;;;;;;3.67;1.40;;;10.20;99.90;;;;;;2083043;28;20452;-74
2023/04/01 05:07:21;;;;;;;4.38;1.50;;;10.20;99.90;;;;;;2076747;28;20033;-73
2023/04/01 05:08:22;;;;;;;6.93;1.60;;;10.20;99.90;;;;;;2073092;28;20029;-71
2023/04/01 05:09:22;;;;;;;2.80;1.40;;;10.20;99.90;;;;;;2079479;28;20456;-75
2023/04/01 05:10:23;;;;;;;4.57;1.30;;;10.20;99.90;;;;;;2079798;28;20248;-74
2023/04/01 05:11:25;;;;;;;4.07;1.50;;;10.20;99.90;;;;;;2089711;28;20571;-74
2023/04/01 05:12:26;;;;;;;3.83;1.30;;;10.20;99.90;;;;;;2081857;28;20028;-74
2023/04/01 05:13:33;;;;;;;4.70;1.40;;;10.20;99.90;;;;;;2082183;28;20531;-75
2023/04/01 05:14:34;;;;;;;3.45;1.40;;;10.20;99.90;;;;;;2081637;28;20090;-80
2023/04/01 05:15:42;;;;;;;5.75;1.50;;;10.20;99.90;;;;;;2089853;28;20310;-78
2023/04/01 05:16:43;;;;;;;5.13;1.40;;;10.20;99.90;;;;;;2091984;28;20028;-79
2023/04/01 05:17:43;;;;;;;3.50;1.60;;;10.20;99.90;;;;;;2085208;28;20036;-80
2023/04/01 05:18:44;;;;;;;4.30;1.60;;;10.20;99.90;;;;;;2090258;28;20289;-81
2023/04/01 05:19:45;;;;;;;4.07;1.52;;;10.20;99.90;;;;;;2083377;28;20021;-80
2023/04/01 05:20:49;;;;;;;5.35;1.65;;;10.20;99.90;;;;;;2078485;28;20033;-74
2023/04/01 05:21:49;;;;;;;4.38;1.55;;;10.20;99.90;;;;;;2073411;28;20440;-72
2023/04/01 05:22:56;;;;;;;4.15;1.60;;;10.20;99.90;;;;;;2080572;28;20500;-76
2023/04/01 05:23:56;;;;;;;4.28;1.60;;;10.20;99.90;;;;;;2080510;28;20091;-75
2023/04/01 05:24:58;;;;;;;4.63;1.33;;;10.20;99.90;;;;;;2073430;28;20026;-76
2023/04/01 05:26:07;;;;;;;4.10;1.40;;;10.20;99.90;;;;;;2065610;28;20583;-76
2023/04/01 05:27:08;;;;;;;3.97;1.70;;;10.20;99.90;;;;;;2075510;28;20441;-75
2023/04/01 05:28:12;;;;;;;4.18;1.60;;;10.20;99.90;;;;;;2080672;28;20028;-75
2023/04/01 05:29:13;;;;;;;3.05;1.30;;;10.20;99.90;;;;;;2080604;28;20032;-75
2023/04/01 05:30:14;;;;;;;2.25;1.30;;;10.20;99.90;;;;;;2074435;28;20025;-76
2023/04/01 05:31:27;;;;;;;4.63;1.80;;;10.20;99.90;;;;;;2080404;28;20037;-77
2023/04/01 05:32:28;;;;;;;2.92;1.45;;;10.30;99.90;;;;;;2071672;28;20041;-76